createdAt,value
2023-01-21T00:00:10.546Z,97195.75
2023-01-21T00:02:37.413Z,97197.69
2023-01-21T00:05:04.520Z,97201.34
2023-01-21T00:07:31.337Z,97201.13
2023-01-21T00:09:57.988Z,97207.56
2023-01-21T00:12:24.801Z,97201.63
2023-01-21T00:14:51.517Z,97207.84
2023-01-21T00:17:18.284Z,97205.47
2023-01-21T00:19:44.957Z,97218.44
2023-01-21T00:22:12.306Z,97219.59
2023-01-21T00:24:39.026Z,97214.19
2023-01-21T00:27:05.912Z,97215.13
2023-01-21T00:29:32.619Z,97209.72
2023-01-21T00:31:59.407Z,97211.94
2023-01-21T00:34:26.088Z,97207.25
2023-01-21T00:36:54.020Z,97212.13
2023-01-21T00:39:22.404Z,97211.41
2023-01-21T00:41:49.136Z,97212.84
2023-01-21T00:44:16.439Z,97208.19
2023-01-21T00:46:43.231Z,97207.44
2023-01-21T00:49:09.875Z,97206.00
2023-01-21T00:51:36.623Z,97202.78
2023-01-21T00:54:03.359Z,97201.34
2023-01-21T00:56:30.135Z,97208.91
2023-01-21T00:58:57.068Z,97211.09
2023-01-21T01:01:23.970Z,97208.91
2023-01-21T01:03:50.738Z,97206.94
2023-01-21T01:06:20.366Z,97207.44
2023-01-21T01:08:48.121Z,97220.94
2023-01-21T01:11:14.976Z,97210.69
2023-01-21T01:13:41.844Z,97213.56
2023-01-21T01:16:09.469Z,97215.03
2023-01-21T01:18:37.032Z,97216.28
2023-01-21T01:21:04.878Z,97216.06
2023-01-21T01:23:32.658Z,97219.69
2023-01-21T01:26:02.139Z,97215.75
2023-01-21T01:28:29.750Z,97226.75
2023-01-21T01:30:57.356Z,97218.66
2023-01-21T01:33:24.907Z,97217.41
2023-01-21T01:35:51.783Z,97214.72
2023-01-21T01:38:22.323Z,97228.94
2023-01-21T01:40:50.697Z,97225.00
2023-01-21T01:43:47.808Z,97227.69
2023-01-21T01:46:14.757Z,97233.09
2023-01-21T01:48:43.005Z,97231.09
2023-01-21T01:51:09.886Z,97227.69
2023-01-21T01:53:40.473Z,97220.84
2023-01-21T01:56:07.528Z,97215.44
2023-01-21T01:58:34.412Z,97219.59
2023-01-21T02:01:01.160Z,97223.00
2023-01-21T02:03:44.849Z,97218.88
2023-01-21T02:06:13.284Z,97224.78
2023-01-21T02:08:40.540Z,97221.56
2023-01-21T02:11:14.978Z,97217.63
2023-01-21T02:13:45.112Z,97222.28
2023-01-21T02:16:27.153Z,97227.19
2023-01-21T02:19:25.889Z,97229.13
2023-01-21T02:22:20.682Z,97234.53
2023-01-21T02:24:59.175Z,97231.09
2023-01-21T02:27:39.655Z,97231.63
2023-01-21T02:30:36.375Z,97229.88
2023-01-21T02:33:27.760Z,97228.41
2023-01-21T02:36:16.401Z,97223.97
2023-01-21T02:38:47.066Z,97230.59
2023-01-21T02:41:22.475Z,97229.34
2023-01-21T02:44:01.477Z,97222.50
2023-01-21T02:46:42.879Z,97223.25
2023-01-21T02:49:21.667Z,97230.81
2023-01-21T02:51:49.319Z,97221.03
2023-01-21T02:54:38.881Z,97224.50
2023-01-21T02:57:07.746Z,97223.75
2023-01-21T02:59:35.443Z,97219.59
2023-01-21T03:02:26.999Z,97223.53
2023-01-21T03:05:15.330Z,97222.81
2023-01-21T03:07:49.080Z,97225.00
2023-01-21T03:10:40.667Z,97229.66
2023-01-21T03:13:45.649Z,97227.69
2023-01-21T03:16:32.459Z,97232.06
2023-01-21T03:19:04.507Z,97230.09
2023-01-21T03:21:33.279Z,97230.81
2023-01-21T03:24:00.188Z,97228.09
2023-01-21T03:26:31.366Z,97234.03
2023-01-21T03:29:00.054Z,97224.50
2023-01-21T03:31:32.025Z,97233.81
2023-01-21T03:34:01.255Z,97233.81
2023-01-21T03:36:46.872Z,97235.28
2023-01-21T03:39:18.431Z,97239.44
2023-01-21T03:41:45.279Z,97237.97
2023-01-21T03:44:11.956Z,97243.38
2023-01-21T03:47:02.278Z,97239.94
2023-01-21T03:49:36.128Z,97235.59
2023-01-21T03:52:04.232Z,97225.81
2023-01-21T03:54:30.999Z,97234.13
2023-01-21T03:56:57.757Z,97235.06
2023-01-21T03:59:24.488Z,97228.41
2023-01-21T04:01:51.216Z,97233.81
2023-01-21T04:04:17.910Z,97238.47
2023-01-21T04:06:44.641Z,97239.72
2023-01-21T04:09:11.448Z,97245.13
2023-01-21T04:11:38.263Z,97248.56
2023-01-21T04:14:04.991Z,97244.59
2023-01-21T04:16:31.836Z,97251.47
2023-01-21T04:18:58.592Z,97250.22
2023-01-21T04:21:25.599Z,97252.94
2023-01-21T04:23:52.290Z,97247.00
2023-01-21T04:26:19.038Z,97256.34
2023-01-21T04:28:46.362Z,97243.38
2023-01-21T04:31:13.493Z,97247.31
2023-01-21T04:33:40.279Z,97257.59
2023-01-21T04:36:07.143Z,97263.72
2023-01-21T04:38:33.800Z,97257.59
2023-01-21T04:41:00.575Z,97264.97
2023-01-21T04:43:27.350Z,97264.22
2023-01-21T04:45:54.197Z,97261.53
2023-01-21T04:48:20.987Z,97271.09
2023-01-21T04:50:47.912Z,97275.00
2023-01-21T04:53:14.624Z,97274.28
2023-01-21T04:55:41.418Z,97278.25
2023-01-21T04:58:08.199Z,97286.88
2023-01-21T05:00:34.977Z,97286.13
2023-01-21T05:03:01.819Z,97288.13
2023-01-21T05:05:28.570Z,97281.03
2023-01-21T05:07:55.385Z,97283.75
2023-01-21T05:10:22.296Z,97282.09
2023-01-21T05:12:49.124Z,97283.31
2023-01-21T05:15:15.962Z,97287.06
2023-01-21T05:17:42.853Z,97275.53
2023-01-21T05:20:12.121Z,97296.16
2023-01-21T05:22:39.285Z,97295.25
2023-01-21T05:25:06.541Z,97303.34
2023-01-21T05:27:33.758Z,97302.38
2023-01-21T05:30:00.411Z,97306.13
2023-01-21T05:32:27.167Z,97306.44
2023-01-21T05:34:53.880Z,97311.09
2023-01-21T05:37:20.608Z,97313.78
2023-01-21T05:39:47.355Z,97318.47
2023-01-21T05:42:14.132Z,97327.81
2023-01-21T05:44:40.820Z,97326.84
2023-01-21T05:47:09.003Z,97324.66
2023-01-21T05:49:36.013Z,97330.34
2023-01-21T05:52:02.732Z,97335.31
2023-01-21T05:54:29.435Z,97334.38
2023-01-21T05:56:56.223Z,97333.66
2023-01-21T05:59:23.010Z,97332.72
2023-01-21T06:01:49.757Z,97343.28
2023-01-21T06:04:16.477Z,97343.56
2023-01-21T06:06:43.277Z,97350.00
2023-01-21T06:09:09.968Z,97346.88
2023-01-21T06:11:36.746Z,97355.97
2023-01-21T06:14:08.840Z,97360.44
2023-01-21T06:16:36.800Z,97373.47
2023-01-21T06:19:03.492Z,97379.19
2023-01-21T06:21:30.316Z,97386.31
2023-01-21T06:23:57.555Z,97392.69
2023-01-21T06:26:26.884Z,97389.59
2023-01-21T06:28:56.447Z,97384.69
2023-01-21T06:31:24.058Z,97395.06
2023-01-21T06:33:50.804Z,97396.78
2023-01-21T06:36:17.545Z,97402.44
2023-01-21T06:38:44.347Z,97406.91
2023-01-21T06:41:11.061Z,97407.41
2023-01-21T06:43:37.909Z,97412.34
2023-01-21T06:46:04.730Z,97418.75
2023-01-21T06:48:31.634Z,97425.91
2023-01-21T06:51:00.753Z,97428.88
2023-01-21T06:53:27.672Z,97428.66
2023-01-21T06:55:54.532Z,97439.19
2023-01-21T06:58:21.309Z,97432.13
2023-01-21T07:00:48.039Z,97437.06
2023-01-21T07:03:14.861Z,97448.09
2023-01-21T07:05:45.095Z,97448.63
2023-01-21T07:08:12.921Z,97449.66
2023-01-21T07:10:39.616Z,97454.34
2023-01-21T07:13:06.396Z,97456.09
2023-01-21T07:15:33.217Z,97455.88
2023-01-21T07:18:00.340Z,97457.50
2023-01-21T07:20:27.106Z,97456.66
2023-01-21T07:22:53.941Z,97452.97
2023-01-21T07:25:20.720Z,97464.00
2023-01-21T07:27:48.127Z,97474.00
2023-01-21T07:30:19.500Z,97459.38
2023-01-21T07:32:46.806Z,97464.94
2023-01-21T07:35:13.759Z,97469.53
2023-01-21T07:37:40.535Z,97474.31
2023-01-21T07:40:07.906Z,97477.03
2023-01-21T07:42:34.682Z,97480.44
2023-01-21T07:45:03.888Z,97483.16
2023-01-21T07:47:30.916Z,97488.25
2023-01-21T07:49:57.621Z,97487.75
2023-01-21T07:52:24.470Z,97496.72
2023-01-21T07:54:51.162Z,97490.63
2023-01-21T07:57:17.943Z,97496.63
2023-01-21T07:59:44.634Z,97507.09
2023-01-21T08:02:12.712Z,97512.91
2023-01-21T08:04:39.771Z,97506.28
2023-01-21T08:07:12.941Z,97522.19
2023-01-21T08:09:40.392Z,97522.47
2023-01-21T08:12:08.453Z,97520.03
2023-01-21T08:14:35.430Z,97523.00
2023-01-21T08:17:02.400Z,97519.16
2023-01-21T08:19:29.255Z,97516.97
2023-01-21T08:21:55.956Z,97537.19
2023-01-21T08:24:22.811Z,97528.19
2023-01-21T08:26:49.492Z,97532.13
2023-01-21T08:29:16.436Z,97532.41
2023-01-21T08:31:43.204Z,97534.84
2023-01-21T08:34:10.297Z,97540.47
2023-01-21T08:36:39.032Z,97535.88
2023-01-21T08:39:06.398Z,97557.34
2023-01-21T08:41:33.569Z,97549.06
2023-01-21T08:44:00.460Z,97555.41
2023-01-21T08:46:27.170Z,97561.78
2023-01-21T08:48:54.001Z,97560.06
2023-01-21T08:51:20.733Z,97566.44
2023-01-21T08:53:49.441Z,97573.75
2023-01-21T08:56:16.479Z,97579.88
2023-01-21T08:58:43.577Z,97583.03
2023-01-21T09:01:12.801Z,97587.44
2023-01-21T09:03:40.088Z,97588.66
2023-01-21T09:06:07.531Z,97586.22
2023-01-21T09:08:36.440Z,97594.28
2023-01-21T09:11:04.466Z,97594.78
2023-01-21T09:13:38.550Z,97598.69
2023-01-21T09:16:22.246Z,97598.94
2023-01-21T09:18:49.343Z,97602.84
2023-01-21T09:21:16.369Z,97607.47
2023-01-21T09:23:43.164Z,97615.53
2023-01-21T09:26:23.477Z,97613.78
2023-01-21T09:28:55.516Z,97620.16
2023-01-21T09:31:26.336Z,97630.69
2023-01-21T09:34:01.557Z,97628.97
2023-01-21T09:36:30.833Z,97645.09
2023-01-21T09:38:57.927Z,97644.63
2023-01-21T09:41:36.400Z,97651.91
2023-01-21T09:44:12.602Z,97649.72
2023-01-21T09:46:42.900Z,97658.28
2023-01-21T09:49:14.821Z,97660.25
2023-01-21T09:51:46.691Z,97668.53
2023-01-21T09:54:33.962Z,97660.75
2023-01-21T09:57:17.156Z,97664.88
2023-01-21T10:00:22.471Z,97674.41
2023-01-21T10:02:59.084Z,97676.63
2023-01-21T10:05:48.647Z,97673.44
2023-01-21T10:08:31.453Z,97671.47
2023-01-21T10:11:26.329Z,97676.81
2023-01-21T10:14:27.175Z,97675.84
2023-01-21T10:17:04.502Z,97669.97
2023-01-21T10:19:41.941Z,97667.00
2023-01-21T10:22:14.673Z,97676.03
2023-01-21T10:25:00.810Z,97683.09
2023-01-21T10:27:29.210Z,97677.41
2023-01-21T10:30:00.820Z,97677.88
2023-01-21T10:32:28.175Z,97678.59
2023-01-21T10:34:56.206Z,97681.97
2023-01-21T10:37:43.021Z,97676.59
2023-01-21T10:40:59.239Z,97675.63
2023-01-21T10:43:32.115Z,97670.44
2023-01-21T10:46:20.040Z,97678.25
2023-01-21T10:48:52.512Z,97676.72
2023-01-21T10:51:25.240Z,97675.78
2023-01-21T10:53:56.473Z,97676.00
2023-01-21T10:56:35.615Z,97671.56
2023-01-21T10:59:27.274Z,97677.41
2023-01-21T11:02:05.008Z,97673.81
2023-01-21T11:04:31.884Z,97681.00
2023-01-21T11:07:03.741Z,97676.00
2023-01-21T11:09:33.231Z,97673.25
2023-01-21T11:12:01.008Z,97676.09
2023-01-21T11:14:28.149Z,97674.47
2023-01-21T11:16:55.869Z,97670.47
2023-01-21T11:19:24.979Z,97667.28
2023-01-21T11:22:13.021Z,97664.53
2023-01-21T11:24:47.951Z,97663.22
2023-01-21T11:27:21.486Z,97660.56
2023-01-21T11:29:50.097Z,97663.41
2023-01-21T11:32:22.164Z,97657.50
2023-01-21T11:34:51.048Z,97661.13
2023-01-21T11:37:26.548Z,97657.84
2023-01-21T11:39:59.285Z,97667.09
2023-01-21T11:42:26.417Z,97665.28
2023-01-21T11:44:59.121Z,97669.28
2023-01-21T11:47:41.421Z,97667.97
2023-01-21T11:50:13.935Z,97662.63
2023-01-21T11:52:40.722Z,97663.00
2023-01-21T11:55:45.536Z,97666.50
2023-01-21T11:58:33.076Z,97665.13
2023-01-21T12:01:01.564Z,97676.50
2023-01-21T12:03:42.591Z,97680.03
2023-01-21T12:06:10.035Z,97672.78
2023-01-21T12:08:37.921Z,97680.00
2023-01-21T12:11:06.532Z,97672.56
2023-01-21T12:13:45.214Z,97669.78
2023-01-21T12:16:31.294Z,97671.25
2023-01-21T12:19:17.841Z,97671.53
2023-01-21T12:22:02.706Z,97667.13
2023-01-21T12:24:47.699Z,97663.47
2023-01-21T12:27:35.862Z,97666.59
2023-01-21T12:30:06.478Z,97675.13
2023-01-21T12:32:49.180Z,97659.63
2023-01-21T12:35:43.689Z,97662.13
2023-01-21T12:38:26.574Z,97668.53
2023-01-21T12:41:22.768Z,97664.13
2023-01-21T12:44:21.394Z,97664.19
2023-01-21T12:46:49.949Z,97656.13
2023-01-21T12:49:21.344Z,97656.34
2023-01-21T12:52:00.632Z,97652.69
2023-01-21T12:54:47.394Z,97648.72
2023-01-21T12:57:34.776Z,97662.88
2023-01-21T13:00:10.415Z,97659.84
2023-01-21T13:02:46.344Z,97655.38
2023-01-21T13:05:21.660Z,97662.06
2023-01-21T13:08:09.815Z,97657.88
2023-01-21T13:10:45.959Z,97662.78
2023-01-21T13:13:18.895Z,97653.31
2023-01-21T13:15:52.693Z,97653.75
2023-01-21T13:18:32.945Z,97657.22
2023-01-21T13:21:06.753Z,97656.50
2023-01-21T13:23:51.513Z,97657.03
2023-01-21T13:26:29.290Z,97664.75
2023-01-21T13:29:16.324Z,97676.63
2023-01-21T13:32:08.916Z,97668.66
2023-01-21T13:34:43.157Z,97680.63
2023-01-21T13:37:22.513Z,97679.38
2023-01-21T13:40:41.860Z,97679.63
2023-01-21T13:43:11.804Z,97686.00
2023-01-21T13:45:58.196Z,97683.72
2023-01-21T13:48:43.207Z,97686.91
2023-01-21T13:51:34.923Z,97684.06
2023-01-21T13:54:32.188Z,97688.72
2023-01-21T13:57:17.935Z,97682.63
2023-01-21T13:59:49.825Z,97691.88
2023-01-21T14:02:34.003Z,97680.84
2023-01-21T14:05:09.578Z,97686.44
2023-01-21T14:07:45.823Z,97690.13
2023-01-21T14:10:31.751Z,97691.38
2023-01-21T14:13:16.810Z,97692.91
2023-01-21T14:15:55.125Z,97694.41
2023-01-21T14:18:50.505Z,97701.47
2023-01-21T14:21:28.665Z,97700.25
2023-01-21T14:24:20.805Z,97702.25
2023-01-21T14:27:14.898Z,97699.31
2023-01-21T14:29:46.758Z,97696.88
2023-01-21T14:32:20.990Z,97705.44
2023-01-21T14:35:13.977Z,97710.78
2023-01-21T14:37:46.726Z,97715.19
2023-01-21T14:40:20.178Z,97724.22
2023-01-21T14:42:51.200Z,97711.03
2023-01-21T14:45:22.287Z,97725.44
2023-01-21T14:47:53.874Z,97715.94
2023-01-21T14:51:02.895Z,97721.06
2023-01-21T14:53:29.665Z,97719.84
2023-01-21T14:56:16.735Z,97721.03
2023-01-21T14:58:52.260Z,97724.69
2023-01-21T15:01:43.953Z,97732.22
2023-01-21T15:04:28.821Z,97739.25
2023-01-21T15:07:01.876Z,97737.03
2023-01-21T15:09:31.466Z,97744.88
2023-01-21T15:12:03.482Z,97738.97
2023-01-21T15:14:35.143Z,97749.66
2023-01-21T15:17:02.140Z,97741.78
2023-01-21T15:19:34.307Z,97747.91
2023-01-21T15:22:39.860Z,97752.31
2023-01-21T15:25:25.447Z,97760.81
2023-01-21T15:28:49.650Z,97748.38
2023-01-21T15:31:18.939Z,97751.78
2023-01-21T15:33:50.597Z,97758.91
2023-01-21T15:36:28.096Z,97759.91
2023-01-21T15:39:02.077Z,97758.22
2023-01-21T15:41:50.858Z,97768.44
2023-01-21T15:44:23.113Z,97769.41
2023-01-21T15:47:18.942Z,97774.53
2023-01-21T15:49:49.223Z,97771.56
2023-01-21T15:52:28.580Z,97779.38
2023-01-21T15:55:10.062Z,97776.44
2023-01-21T15:57:36.749Z,97778.81
2023-01-21T16:00:25.475Z,97788.75
2023-01-21T16:02:57.985Z,97789.28
2023-01-21T16:05:41.739Z,97789.59
2023-01-21T16:08:23.411Z,97792.09
2023-01-21T16:11:06.211Z,97787.41
2023-01-21T16:13:42.058Z,97800.09
2023-01-21T16:16:30.288Z,97800.09
2023-01-21T16:19:03.259Z,97803.03
2023-01-21T16:21:40.157Z,97813.53
2023-01-21T16:24:17.733Z,97806.44
2023-01-21T16:26:44.657Z,97806.44
2023-01-21T16:29:13.297Z,97810.63
2023-01-21T16:31:59.489Z,97811.38
2023-01-21T16:34:42.793Z,97814.56
2023-01-21T16:37:15.702Z,97813.53
2023-01-21T16:39:42.922Z,97810.31
2023-01-21T16:42:21.803Z,97817.84
2023-01-21T16:44:53.145Z,97816.41
2023-01-21T16:47:26.998Z,97823.28
2023-01-21T16:49:53.873Z,97820.16
2023-01-21T16:52:23.803Z,97831.53
2023-01-21T16:54:52.859Z,97836.53
2023-01-21T16:57:29.619Z,97834.91
2023-01-21T17:00:05.967Z,97836.88
2023-01-21T17:02:34.506Z,97840.09
2023-01-21T17:05:06.533Z,97837.66
2023-01-21T17:07:48.874Z,97840.84
2023-01-21T17:10:16.083Z,97846.69
2023-01-21T17:13:02.884Z,97843.78
2023-01-21T17:15:39.170Z,97845.72
2023-01-21T17:18:09.918Z,97847.69
2023-01-21T17:20:38.397Z,97845.50
2023-01-21T17:23:26.971Z,97847.19
2023-01-21T17:26:18.541Z,97849.16
2023-01-21T17:28:58.570Z,97849.13
2023-01-21T17:31:35.823Z,97845.69
2023-01-21T17:34:24.669Z,97851.34
2023-01-21T17:36:53.104Z,97851.56
2023-01-21T17:39:48.188Z,97866.50
2023-01-21T17:42:22.636Z,97850.34
2023-01-21T17:44:55.044Z,97862.31
2023-01-21T17:47:26.049Z,97858.16
2023-01-21T17:50:22.145Z,97868.41
2023-01-21T17:53:03.069Z,97869.16
2023-01-21T17:55:29.754Z,97864.50
2023-01-21T17:57:56.811Z,97877.00
2023-01-21T18:00:45.791Z,97880.41
2023-01-21T18:03:13.250Z,97874.53
2023-01-21T18:05:41.725Z,97874.06
2023-01-21T18:08:18.219Z,97868.91
2023-01-21T18:10:45.951Z,97873.53
2023-01-21T18:13:14.255Z,97882.09
2023-01-21T18:15:43.079Z,97880.88
2023-01-21T18:18:17.006Z,97886.75
2023-01-21T18:20:43.992Z,97883.06
2023-01-21T18:23:11.398Z,97890.41
2023-01-21T18:25:38.842Z,97880.16
2023-01-21T18:28:12.327Z,97894.56
2023-01-21T18:30:39.107Z,97880.41
2023-01-21T18:33:05.828Z,97883.59
2023-01-21T18:35:32.608Z,97880.41
2023-01-21T18:37:59.294Z,97880.88
2023-01-21T18:40:26.070Z,97884.78
2023-01-21T18:42:55.523Z,97891.66
2023-01-21T18:45:25.772Z,97889.22
2023-01-21T18:47:52.726Z,97882.84
2023-01-21T18:50:22.464Z,97882.84
2023-01-21T18:52:49.548Z,97890.91
2023-01-21T18:55:17.655Z,97881.38
2023-01-21T18:57:48.931Z,97883.59
2023-01-21T19:00:22.500Z,97895.59
2023-01-21T19:02:50.534Z,97896.06
2023-01-21T19:05:17.428Z,97900.47
2023-01-21T19:07:44.364Z,97896.56
2023-01-21T19:10:17.425Z,97895.81
2023-01-21T19:12:44.687Z,97890.66
2023-01-21T19:15:16.931Z,97895.31
2023-01-21T19:17:44.101Z,97903.66
2023-01-21T19:20:21.535Z,97906.09
2023-01-21T19:22:49.145Z,97906.38
2023-01-21T19:25:18.149Z,97905.34
2023-01-21T19:27:56.046Z,97890.66
2023-01-21T19:30:23.839Z,97881.09
2023-01-21T19:32:52.427Z,97893.59
2023-01-21T19:35:21.853Z,97883.78
2023-01-21T19:37:50.483Z,97890.88
2023-01-21T19:40:22.703Z,97894.81
2023-01-21T19:42:49.815Z,97890.88
2023-01-21T19:45:17.720Z,97897.97
2023-01-21T19:47:46.422Z,97889.16
2023-01-21T19:50:24.491Z,97894.31
2023-01-21T19:52:52.686Z,97890.66
2023-01-21T19:55:22.383Z,97889.88
2023-01-21T19:57:58.490Z,97900.19
2023-01-21T20:00:34.084Z,97891.38
2023-01-21T20:03:01.478Z,97896.28
2023-01-21T20:05:30.298Z,97894.31
2023-01-21T20:07:57.141Z,97894.81
2023-01-21T20:10:26.323Z,97894.56
2023-01-21T20:12:53.610Z,97897.50
2023-01-21T20:15:34.377Z,97895.03
2023-01-21T20:18:01.369Z,97889.63
2023-01-21T20:20:29.983Z,97888.69
2023-01-21T20:22:57.542Z,97889.63
2023-01-21T20:25:26.565Z,97892.59
2023-01-21T20:27:56.983Z,97893.53
2023-01-21T20:30:27.171Z,97889.63
2023-01-21T20:32:54.386Z,97880.81
2023-01-21T20:35:22.529Z,97892.56
2023-01-21T20:37:50.785Z,97880.78
2023-01-21T20:40:20.886Z,97881.78
2023-01-21T20:42:48.466Z,97880.75
2023-01-21T20:45:17.125Z,97878.31
2023-01-21T20:47:50.054Z,97884.44
2023-01-21T20:50:21.473Z,97887.13
2023-01-21T20:52:49.538Z,97874.41
2023-01-21T20:55:20.725Z,97875.13
2023-01-21T20:57:48.403Z,97874.41
2023-01-21T21:00:19.973Z,97870.97
2023-01-21T21:02:47.083Z,97887.38
2023-01-21T21:05:15.680Z,97878.56
2023-01-21T21:07:42.684Z,97879.53
2023-01-21T21:10:22.404Z,97883.72
2023-01-21T21:12:49.881Z,97885.19
2023-01-21T21:15:17.685Z,97891.53
2023-01-21T21:17:46.934Z,97887.88
2023-01-21T21:20:26.534Z,97883.72
2023-01-21T21:22:53.768Z,97890.28
2023-01-21T21:25:23.325Z,97887.59
2023-01-21T21:27:50.222Z,97887.59
2023-01-21T21:30:20.123Z,97887.59
2023-01-21T21:32:47.054Z,97887.34
2023-01-21T21:35:24.224Z,97890.25
2023-01-21T21:37:51.927Z,97888.06
2023-01-21T21:40:20.190Z,97883.19
2023-01-21T21:43:06.253Z,97891.50
2023-01-21T21:45:33.120Z,97891.75
2023-01-21T21:48:18.362Z,97896.41
2023-01-21T21:50:45.286Z,97891.50
2023-01-21T21:53:12.293Z,97882.69
2023-01-21T21:55:39.063Z,97890.53
2023-01-21T21:58:05.877Z,97883.16
2023-01-21T22:00:32.630Z,97879.97
2023-01-21T22:03:00.124Z,97879.72
2023-01-21T22:05:27.099Z,97879.47
2023-01-21T22:07:53.831Z,97878.00
2023-01-21T22:10:20.723Z,97884.13
2023-01-21T22:12:48.599Z,97884.38
2023-01-21T22:15:15.929Z,97882.41
2023-01-21T22:17:42.807Z,97887.78
2023-01-21T22:20:10.428Z,97882.91
2023-01-21T22:22:39.148Z,97881.69
2023-01-21T22:25:07.530Z,97878.72
2023-01-21T22:27:34.239Z,97883.16
2023-01-21T22:30:01.619Z,97874.34
2023-01-21T22:32:28.580Z,97871.16
2023-01-21T22:34:55.322Z,97871.41
2023-01-21T22:37:22.028Z,97874.31
2023-01-21T22:39:48.761Z,97871.13
2023-01-21T22:42:15.426Z,97868.69
2023-01-21T22:44:42.186Z,97868.41
2023-01-21T22:47:08.925Z,97858.34
2023-01-21T22:49:35.755Z,97863.50
2023-01-21T22:52:02.652Z,97857.16
2023-01-21T22:54:29.396Z,97855.69
2023-01-21T22:56:56.089Z,97856.41
2023-01-21T22:59:22.985Z,97857.16
2023-01-21T23:01:51.283Z,97849.81
2023-01-21T23:04:18.199Z,97848.06
2023-01-21T23:06:45.001Z,97837.78
2023-01-21T23:09:15.915Z,97846.38
2023-01-21T23:11:45.018Z,97844.63
2023-01-21T23:14:12.891Z,97842.44
2023-01-21T23:16:39.748Z,97833.84
2023-01-21T23:19:06.553Z,97836.56
2023-01-21T23:21:33.315Z,97831.88
2023-01-21T23:24:00.109Z,97833.84
2023-01-21T23:26:26.811Z,97838.00
2023-01-21T23:28:56.091Z,97837.97
2023-01-21T23:31:23.893Z,97832.84
2023-01-21T23:33:52.817Z,97829.41
2023-01-21T23:36:20.154Z,97839.69
2023-01-21T23:38:47.066Z,97830.63
2023-01-21T23:41:21.011Z,97830.16
2023-01-21T23:43:47.881Z,97832.34
2023-01-21T23:46:16.792Z,97830.16
2023-01-21T23:48:43.868Z,97838.25
2023-01-21T23:51:13.269Z,97828.22
2023-01-21T23:53:40.154Z,97820.59
2023-01-21T23:56:29.056Z,97827.94
2023-01-21T23:58:55.804Z,97832.88
